Time;durP1;ratioP1;P1;durP2;ratioP2;P2;SDS_P1;SDS_P2;PMS_P1;PMS_P2;Temp;Humidity;BMP_temperature;BMP_pressure;BME280_temperature;BME280_humidity;BME280_pressure;Samples;Min_cycle;Max_cycle;Signal;HPM_P1;HPM_P2
2022/10/14 00:00:01;;;;;;;;;;;;;;;;;;5023386;28;19921;-60
2022/10/14 00:02:27;;;;;;;;;;;;;;;;;;5024488;28;19924;-60
2022/10/14 00:04:52;;;;;;;;;;;;;;;;;;5026407;28;20590;-60
2022/10/14 00:07:19;;;;;;;;;;;;;;;;;;5025612;28;19968;-59
2022/10/14 00:09:45;;;;;;;;;;;;;;;;;;5004705;28;20031;-60
2022/10/14 00:12:10;;;;;;;;;;;;;;;;;;5006334;28;19926;-60
2022/10/14 00:14:35;;;;;;;;;;;;;;;;;;5022573;28;22313;-60
2022/10/14 00:17:01;;;;;;;;;;;;;;;;;;5024513;28;20367;-59
2022/10/14 00:19:31;;;;;;;;;;;;;;;;;;5024187;28;19958;-60
2022/10/14 00:21:56;;;;;;;;;;;;;;;;;;5021922;28;19964;-60
2022/10/14 00:24:21;;;;;;;;;;;;;;;;;;5008240;28;21759;-60
2022/10/14 00:26:54;;;;;;;;;;;;;;;;;;5020710;28;19917;-60
2022/10/14 00:29:19;;;;;;;;;;;;;;;;;;5036076;28;19932;-60
2022/10/14 00:31:45;;;;;;;;;;;;;;;;;;5020328;28;20681;-60
2022/10/14 00:34:12;;;;;;;;;;;;;;;;;;5023631;28;19921;-60
2022/10/14 00:36:37;;;;;;;;;;;;;;;;;;5004269;28;20046;-60
2022/10/14 00:39:05;;;;;;;;;;;;;;;;;;5025192;28;21067;-59
2022/10/14 00:41:34;;;;;;;;;;;;;;;;;;5022286;28;20513;-59
2022/10/14 00:44:01;;;;;;;;;;;;;;;;;;5020649;28;19978;-59
2022/10/14 00:46:32;;;;;;;;;;;;;;;;;;5021319;28;19921;-59
2022/10/14 00:48:58;;;;;;;;;;;;;;;;;;5022144;28;20568;-59
2022/10/14 00:51:23;;;;;;;;;;;;;;;;;;5024495;28;19921;-59
2022/10/14 00:53:49;;;;;;;;;;;;;;;;;;5025759;28;19925;-59
2022/10/14 00:56:17;;;;;;;;;;;;;;;;;;5022205;28;20513;-59
2022/10/14 00:58:47;;;;;;;;;;;;;;;;;;5019451;28;20030;-59
2022/10/14 01:01:15;;;;;;;;;;;;;;;;;;5022667;28;19928;-59
2022/10/14 01:03:43;;;;;;;;;;;;;;;;;;5022053;28;19967;-59
2022/10/14 01:06:08;;;;;;;;;;;;;;;;;;5022118;28;20007;-59
2022/10/14 01:08:36;;;;;;;;;;;;;;;;;;5024991;28;20415;-59
2022/10/14 01:11:02;;;;;;;;;;;;;;;;;;5021439;28;20369;-59
2022/10/14 01:13:28;;;;;;;;;;;;;;;;;;5023217;28;19925;-59
2022/10/14 01:15:56;;;;;;;;;;;;;;;;;;5019981;28;19923;-59
2022/10/14 01:18:21;;;;;;;;;;;;;;;;;;5021098;28;20020;-59
2022/10/14 01:20:49;;;;;;;;;;;;;;;;;;5022689;28;20792;-58
2022/10/14 01:23:15;;;;;;;;;;;;;;;;;;5019953;28;19920;-59
2022/10/14 01:25:42;;;;;;;;;;;;;;;;;;5020729;28;19960;-59
2022/10/14 01:28:10;;;;;;;;;;;;;;;;;;5021471;28;20058;-59
2022/10/14 01:30:35;;;;;;;;;;;;;;;;;;5020052;28;19933;-59
2022/10/14 01:33:01;;;;;;;;;;;;;;;;;;5023401;28;19921;-59
2022/10/14 01:35:29;;;;;;;;;;;;;;;;;;5022870;28;19921;-59
2022/10/14 01:37:57;;;;;;;;;;;;;;;;;;5021849;28;20443;-59
2022/10/14 01:40:22;;;;;;;;;;;;;;;;;;5022959;28;19927;-59
2022/10/14 01:42:48;;;;;;;;;;;;;;;;;;5019120;28;19969;-58
2022/10/14 01:45:15;;;;;;;;;;;;;;;;;;5021776;28;19916;-59
2022/10/14 01:47:41;;;;;;;;;;;;;;;;;;5023538;28;19987;-59
2022/10/14 01:50:09;;;;;;;;;;;;;;;;;;5020923;28;19960;-59
2022/10/14 01:52:35;;;;;;;;;;;;;;;;;;5023169;28;19923;-58
2022/10/14 01:55:05;;;;;;;;;;;;;;;;;;5023366;28;19931;-58
2022/10/14 01:57:32;;;;;;;;;;;;;;;;;;5021567;28;19956;-59
2022/10/14 01:59:57;;;;;;;;;;;;;;;;;;5019733;28;19927;-59
2022/10/14 02:02:23;;;;;;;;;;;;;;;;;;5021315;28;20861;-58
2022/10/14 02:04:49;;;;;;;;;;;;;;;;;;5021230;28;19921;-58
2022/10/14 02:07:15;;;;;;;;;;;;;;;;;;5019000;28;20422;-59
2022/10/14 02:09:40;;;;;;;;;;;;;;;;;;5029843;28;20544;-58
2022/10/14 02:12:05;;;;;;;;;;;;;;;;;;5025116;28;20035;-58
2022/10/14 02:14:31;;;;;;;;;;;;;;;;;;5026844;28;20388;-58
2022/10/14 02:16:57;;;;;;;;;;;;;;;;;;5024972;28;19956;-58
2022/10/14 02:19:22;;;;;;;;;;;;;;;;;;5025678;28;19920;-58
2022/10/14 02:21:50;;;;;;;;;;;;;;;;;;5024192;28;19917;-58
2022/10/14 02:24:15;;;;;;;;;;;;;;;;;;5024211;28;19929;-58
2022/10/14 02:26:41;;;;;;;;;;;;;;;;;;5023049;28;19917;-58
2022/10/14 02:29:08;;;;;;;;;;;;;;;;;;5022632;28;19921;-58
2022/10/14 02:31:34;;;;;;;;;;;;;;;;;;5022803;28;20387;-58
2022/10/14 02:34:02;;;;;;;;;;;;;;;;;;5025556;28;20672;-58
2022/10/14 02:36:27;;;;;;;;;;;;;;;;;;5026099;28;19920;-59
2022/10/14 02:38:57;;;;;;;;;;;;;;;;;;5023262;28;19920;-58
2022/10/14 02:41:25;;;;;;;;;;;;;;;;;;5026133;28;19925;-59
2022/10/14 02:43:50;;;;;;;;;;;;;;;;;;5024861;28;21859;-58
2022/10/14 02:46:16;;;;;;;;;;;;;;;;;;5024428;28;19934;-58
2022/10/14 02:48:44;;;;;;;;;;;;;;;;;;5025232;28;19952;-59
2022/10/14 02:51:09;;;;;;;;;;;;;;;;;;5023513;28;20043;-59
2022/10/14 02:53:37;;;;;;;;;;;;;;;;;;5025523;28;19920;-59
2022/10/14 02:56:07;;;;;;;;;;;;;;;;;;5024966;28;20067;-59
2022/10/14 02:58:35;;;;;;;;;;;;;;;;;;5024883;28;20624;-58
2022/10/14 03:01:03;;;;;;;;;;;;;;;;;;5007384;28;19925;-58
2022/10/14 03:03:29;;;;;;;;;;;;;;;;;;5024061;28;20539;-59
2022/10/14 03:05:57;;;;;;;;;;;;;;;;;;5022230;28;19916;-59
2022/10/14 03:08:25;;;;;;;;;;;;;;;;;;5025254;28;19925;-58
2022/10/14 03:10:53;;;;;;;;;;;;;;;;;;5026276;28;19916;-58
2022/10/14 03:13:21;;;;;;;;;;;;;;;;;;5028075;28;19917;-58
2022/10/14 03:15:46;;;;;;;;;;;;;;;;;;5024938;28;19927;-60
2022/10/14 03:18:14;;;;;;;;;;;;;;;;;;5024543;28;19943;-58
2022/10/14 03:20:39;;;;;;;;;;;;;;;;;;5023246;28;20559;-58
2022/10/14 03:23:04;;;;;;;;;;;;;;;;;;5025310;28;19920;-59
2022/10/14 03:25:32;;;;;;;;;;;;;;;;;;5020457;28;20550;-59
2022/10/14 03:27:58;;;;;;;;;;;;;;;;;;5024475;28;19921;-60
2022/10/14 03:30:25;;;;;;;;;;;;;;;;;;5019029;28;19924;-60
2022/10/14 03:32:56;;;;;;;;;;;;;;;;;;5026618;28;20459;-58
2022/10/14 03:35:23;;;;;;;;;;;;;;;;;;5023038;28;21001;-59
2022/10/14 03:37:51;;;;;;;;;;;;;;;;;;5026080;28;19943;-58
2022/10/14 03:40:19;;;;;;;;;;;;;;;;;;5023116;28;20821;-59
2022/10/14 03:42:44;;;;;;;;;;;;;;;;;;5023938;28;19920;-60
2022/10/14 03:45:12;;;;;;;;;;;;;;;;;;5009212;28;20011;-60
2022/10/14 03:47:37;;;;;;;;;;;;;;;;;;5022866;28;20608;-60
2022/10/14 03:50:03;;;;;;;;;;;;;;;;;;5022805;28;20307;-59
2022/10/14 03:52:29;;;;;;;;;;;;;;;;;;5019953;28;19960;-58
2022/10/14 03:54:54;;;;;;;;;;;;;;;;;;5025137;28;20800;-58
2022/10/14 03:57:19;;;;;;;;;;;;;;;;;;5020790;28;19921;-58
2022/10/14 03:59:45;;;;;;;;;;;;;;;;;;5023604;28;19939;-59
2022/10/14 04:02:12;;;;;;;;;;;;;;;;;;5021200;28;19925;-59
2022/10/14 04:04:38;;;;;;;;;;;;;;;;;;5024153;28;19951;-59
2022/10/14 04:07:03;;;;;;;;;;;;;;;;;;5023045;28;20319;-59
2022/10/14 04:09:32;;;;;;;;;;;;;;;;;;5025254;28;19948;-59
2022/10/14 04:11:59;;;;;;;;;;;;;;;;;;5004994;28;20012;-59
2022/10/14 04:14:25;;;;;;;;;;;;;;;;;;5019762;28;20474;-60
2022/10/14 04:16:50;;;;;;;;;;;;;;;;;;5022780;28;19917;-59
2022/10/14 04:19:16;;;;;;;;;;;;;;;;;;5002269;28;19999;-59
2022/10/14 04:21:46;;;;;;;;;;;;;;;;;;5007002;28;19920;-59
2022/10/14 04:24:11;;;;;;;;;;;;;;;;;;5020837;28;19928;-59
2022/10/14 04:26:39;;;;;;;;;;;;;;;;;;5023802;28;19920;-59
2022/10/14 04:29:07;;;;;;;;;;;;;;;;;;5020386;28;20006;-60
2022/10/14 04:31:35;;;;;;;;;;;;;;;;;;5020588;28;20076;-59
2022/10/14 04:34:05;;;;;;;;;;;;;;;;;;5023006;28;20063;-59
2022/10/14 04:36:33;;;;;;;;;;;;;;;;;;5020758;28;20019;-60
2022/10/14 04:38:58;;;;;;;;;;;;;;;;;;5020651;28;19928;-60
2022/10/14 04:41:26;;;;;;;;;;;;;;;;;;5019562;28;19917;-59
2022/10/14 04:43:51;;;;;;;;;;;;;;;;;;5017869;28;22233;-60
2022/10/14 04:46:17;;;;;;;;;;;;;;;;;;5020101;28;19921;-59
2022/10/14 04:48:44;;;;;;;;;;;;;;;;;;5006517;28;19970;-59
2022/10/14 04:51:10;;;;;;;;;;;;;;;;;;5021522;28;19925;-60
2022/10/14 04:53:35;;;;;;;;;;;;;;;;;;5019698;28;20012;-60
2022/10/14 04:56:03;;;;;;;;;;;;;;;;;;5020313;28;20889;-59
2022/10/14 04:58:30;;;;;;;;;;;;;;;;;;5037411;28;19921;-59
2022/10/14 05:00:59;;;;;;;;;;;;;;;;;;5021781;28;20330;-59
2022/10/14 05:03:25;;;;;;;;;;;;;;;;;;5022711;28;20004;-59
2022/10/14 05:05:50;;;;;;;;;;;;;;;;;;5017875;28;20924;-59
2022/10/14 05:08:16;;;;;;;;;;;;;;;;;;5019805;28;19925;-58
2022/10/14 05:10:41;;;;;;;;;;;;;;;;;;5019003;28;19944;-58
2022/10/14 05:13:06;;;;;;;;;;;;;;;;;;5018389;28;20340;-58
2022/10/14 05:15:34;;;;;;;;;;;;;;;;;;5020055;28;19960;-58
2022/10/14 05:17:59;;;;;;;;;;;;;;;;;;5017379;28;19923;-59
2022/10/14 05:20:25;;;;;;;;;;;;;;;;;;5019430;28;19982;-57
2022/10/14 05:22:50;;;;;;;;;;;;;;;;;;5014550;28;20008;-60
2022/10/14 05:25:25;;;;;;;;;;;;;;;;;;5022089;28;20007;-59
2022/10/14 05:27:56;;;;;;;;;;;;;;;;;;5017041;28;19925;-58
2022/10/14 05:30:24;;;;;;;;;;;;;;;;;;5004712;28;20020;-58
2022/10/14 05:32:51;;;;;;;;;;;;;;;;;;5020492;28;19925;-60
2022/10/14 05:35:19;;;;;;;;;;;;;;;;;;5021185;28;19966;-59
2022/10/14 05:37:44;;;;;;;;;;;;;;;;;;5001664;28;19925;-58
2022/10/14 05:40:12;;;;;;;;;;;;;;;;;;5020215;28;19956;-59
2022/10/14 05:42:45;;;;;;;;;;;;;;;;;;5017872;28;20106;-58
2022/10/14 05:45:12;;;;;;;;;;;;;;;;;;5024797;28;20296;-59
2022/10/14 05:47:40;;;;;;;;;;;;;;;;;;5023577;28;20129;-58
2022/10/14 05:50:10;;;;;;;;;;;;;;;;;;5029027;28;19917;-58
2022/10/14 05:52:36;;;;;;;;;;;;;;;;;;5025150;28;21811;-59
2022/10/14 05:55:03;;;;;;;;;;;;;;;;;;5005964;28;19939;-60
2022/10/14 05:57:34;;;;;;;;;;;;;;;;;;5023346;28;19925;-60
2022/10/14 05:59:59;;;;;;;;;;;;;;;;;;5023363;28;19923;-59
2022/10/14 06:02:28;;;;;;;;;;;;;;;;;;5026693;28;19921;-59
2022/10/14 06:04:53;;;;;;;;;;;;;;;;;;5021883;28;19923;-63
2022/10/14 06:07:18;;;;;;;;;;;;;;;;;;5022856;28;19920;-60
2022/10/14 06:09:46;;;;;;;;;;;;;;;;;;5021583;28;19921;-59
2022/10/14 06:12:12;;;;;;;;;;;;;;;;;;5026777;28;19924;-59
2022/10/14 06:14:38;;;;;;;;;;;;;;;;;;5027154;28;19921;-59
2022/10/14 06:17:05;;;;;;;;;;;;;;;;;;5026514;28;19925;-59
2022/10/14 06:19:30;;;;;;;;;;;;;;;;;;5010441;28;19926;-60
2022/10/14 06:21:58;;;;;;;;;;;;;;;;;;5025464;28;19924;-59
2022/10/14 06:24:24;;;;;;;;;;;;;;;;;;5025018;28;19925;-59
2022/10/14 06:26:49;;;;;;;;;;;;;;;;;;5008377;28;20808;-59
2022/10/14 06:29:14;;;;;;;;;;;;;;;;;;5019632;28;20395;-59
2022/10/14 06:31:42;;;;;;;;;;;;;;;;;;5024992;28;19921;-59
2022/10/14 06:34:10;;;;;;;;;;;;;;;;;;5024692;28;19944;-59
2022/10/14 06:36:38;;;;;;;;;;;;;;;;;;5024850;28;19921;-60
2022/10/14 06:39:04;;;;;;;;;;;;;;;;;;5003472;28;19932;-60
2022/10/14 06:41:31;;;;;;;;;;;;;;;;;;5001995;28;20110;-60
2022/10/14 06:43:57;;;;;;;;;;;;;;;;;;5024490;28;19921;-59
2022/10/14 06:46:24;;;;;;;;;;;;;;;;;;5026116;28;21121;-59
2022/10/14 06:48:49;;;;;;;;;;;;;;;;;;5023753;28;19920;-59
2022/10/14 06:51:15;;;;;;;;;;;;;;;;;;5025085;28;20477;-59
2022/10/14 06:53:42;;;;;;;;;;;;;;;;;;5023067;28;19921;-60
2022/10/14 06:56:11;;;;;;;;;;;;;;;;;;5023355;28;19917;-59
2022/10/14 06:58:38;;;;;;;;;;;;;;;;;;5028266;28;19921;-58
2022/10/14 07:01:04;;;;;;;;;;;;;;;;;;5026380;28;19977;-59
2022/10/14 07:03:31;;;;;;;;;;;;;;;;;;5009602;28;20388;-58
2022/10/14 07:05:57;;;;;;;;;;;;;;;;;;5024532;28;19921;-59
2022/10/14 07:08:22;;;;;;;;;;;;;;;;;;5027345;28;19925;-59
2022/10/14 07:10:48;;;;;;;;;;;;;;;;;;5025657;28;20388;-59
2022/10/14 07:13:15;;;;;;;;;;;;;;;;;;5024881;28;19925;-59
2022/10/14 07:15:41;;;;;;;;;;;;;;;;;;5008435;28;19998;-59
2022/10/14 07:18:08;;;;;;;;;;;;;;;;;;5028003;28;19920;-59
2022/10/14 07:20:33;;;;;;;;;;;;;;;;;;5021919;28;19957;-59
2022/10/14 07:22:59;;;;;;;;;;;;;;;;;;5025654;28;20034;-59
2022/10/14 07:25:24;;;;;;;;;;;;;;;;;;5027180;28;20618;-60
2022/10/14 07:27:54;;;;;;;;;;;;;;;;;;5025141;28;19924;-59
2022/10/14 07:30:22;;;;;;;;;;;;;;;;;;5027083;28;20023;-59
2022/10/14 07:32:50;;;;;;;;;;;;;;;;;;5024826;28;19929;-59
2022/10/14 07:35:16;;;;;;;;;;;;;;;;;;5023139;28;19978;-59
2022/10/14 07:37:44;;;;;;;;;;;;;;;;;;5021240;28;19917;-59
2022/10/14 07:40:12;;;;;;;;;;;;;;;;;;5024563;28;19931;-59
2022/10/14 07:42:37;;;;;;;;;;;;;;;;;;5023926;28;19986;-59
2022/10/14 07:45:03;;;;;;;;;;;;;;;;;;5024590;28;20066;-59
2022/10/14 07:47:28;;;;;;;;;;;;;;;;;;5021988;28;19917;-59
2022/10/14 07:49:53;;;;;;;;;;;;;;;;;;5023269;28;20019;-61
2022/10/14 07:52:21;;;;;;;;;;;;;;;;;;5010418;28;20031;-59
2022/10/14 07:54:51;;;;;;;;;;;;;;;;;;5018760;28;19921;-59
2022/10/14 07:57:16;;;;;;;;;;;;;;;;;;5020730;28;20909;-59
2022/10/14 07:59:45;;;;;;;;;;;;;;;;;;5010028;28;19920;-59
2022/10/14 08:02:10;;;;;;;;;;;;;;;;;;5002045;28;20030;-60
2022/10/14 08:04:35;;;;;;;;;;;;;;;;;;5023358;28;20434;-60
2022/10/14 08:07:03;;;;;;;;;;;;;;;;;;5022830;28;19924;-59
2022/10/14 08:09:32;;;;;;;;;;;;;;;;;;5025173;28;21256;-59
2022/10/14 08:11:59;;;;;;;;;;;;;;;;;;5024689;28;20072;-60
2022/10/14 08:14:25;;;;;;;;;;;;;;;;;;5024284;28;20757;-59
2022/10/14 08:16:50;;;;;;;;;;;;;;;;;;5007659;28;19916;-60
2022/10/14 08:19:15;;;;;;;;;;;;;;;;;;5023294;28;19917;-59
2022/10/14 08:21:40;;;;;;;;;;;;;;;;;;5024585;28;19975;-59
2022/10/14 08:24:08;;;;;;;;;;;;;;;;;;5020560;28;19925;-59
2022/10/14 08:26:38;;;;;;;;;;;;;;;;;;5023427;28;19923;-59
2022/10/14 08:29:03;;;;;;;;;;;;;;;;;;5022560;28;20866;-60
2022/10/14 08:31:33;;;;;;;;;;;;;;;;;;5025385;28;19944;-60
2022/10/14 08:34:01;;;;;;;;;;;;;;;;;;5020223;28;19929;-60
2022/10/14 08:36:26;;;;;;;;;;;;;;;;;;5024288;28;19994;-60
2022/10/14 08:38:54;;;;;;;;;;;;;;;;;;5006071;28;20363;-60
2022/10/14 08:41:22;;;;;;;;;;;;;;;;;;5022892;28;19925;-60
2022/10/14 08:43:50;;;;;;;;;;;;;;;;;;5020993;28;19932;-59
2022/10/14 08:46:17;;;;;;;;;;;;;;;;;;5019938;28;19921;-60
2022/10/14 08:48:45;;;;;;;;;;;;;;;;;;5021009;28;19933;-60
2022/10/14 08:51:12;;;;;;;;;;;;;;;;;;5021316;28;19924;-59
2022/10/14 08:53:38;;;;;;;;;;;;;;;;;;5022855;28;19927;-60
2022/10/14 08:56:03;;;;;;;;;;;;;;;;;;5020640;28;19921;-60
2022/10/14 08:58:31;;;;;;;;;;;;;;;;;;5020864;28;19920;-59
2022/10/14 09:00:59;;;;;;;;;;;;;;;;;;5005538;28;19917;-60
2022/10/14 09:03:31;;;;;;;;;;;;;;;;;;5021515;28;19930;-60
2022/10/14 09:05:57;;;;;;;;;;;;;;;;;;5020075;28;19921;-59
2022/10/14 09:08:29;;;;;;;;;;;;;;;;;;5016171;28;19925;-59
2022/10/14 09:10:55;;;;;;;;;;;;;;;;;;5021088;28;19921;-59
2022/10/14 09:13:20;;;;;;;;;;;;;;;;;;5022433;28;21274;-63
2022/10/14 09:15:45;;;;;;;;;;;;;;;;;;5021089;28;20113;-59
2022/10/14 09:18:16;;;;;;;;;;;;;;;;;;5020280;28;19932;-59
2022/10/14 09:20:45;;;;;;;;;;;;;;;;;;5007254;28;19952;-59
2022/10/14 09:23:14;;;;;;;;;;;;;;;;;;5023914;28;19966;-59
2022/10/14 09:25:39;;;;;;;;;;;;;;;;;;5022410;28;20031;-59
2022/10/14 09:28:07;;;;;;;;;;;;;;;;;;5020782;28;19931;-59
2022/10/14 09:30:35;;;;;;;;;;;;;;;;;;5018805;28;19917;-59
2022/10/14 09:33:05;;;;;;;;;;;;;;;;;;5009097;28;19986;-59
2022/10/14 09:35:31;;;;;;;;;;;;;;;;;;5022912;28;19944;-59
2022/10/14 09:37:57;;;;;;;;;;;;;;;;;;5018955;28;19943;-59
2022/10/14 09:40:24;;;;;;;;;;;;;;;;;;5020055;28;19921;-59
2022/10/14 09:42:50;;;;;;;;;;;;;;;;;;5020567;28;19921;-60
2022/10/14 09:45:18;;;;;;;;;;;;;;;;;;5022581;28;20006;-60
2022/10/14 09:47:43;;;;;;;;;;;;;;;;;;5021653;28;20207;-60
2022/10/14 09:50:11;;;;;;;;;;;;;;;;;;5017921;28;20423;-60
2022/10/14 09:52:39;;;;;;;;;;;;;;;;;;5022740;28;19974;-60
2022/10/14 09:55:04;;;;;;;;;;;;;;;;;;5021474;28;21845;-60
2022/10/14 09:57:30;;;;;;;;;;;;;;;;;;5021681;28;19917;-60
2022/10/14 09:59:55;;;;;;;;;;;;;;;;;;5023443;28;19963;-60
2022/10/14 10:02:20;;;;;;;;;;;;;;;;;;5009093;28;19917;-60
2022/10/14 10:04:48;;;;;;;;;;;;;;;;;;4997920;28;19925;-60
2022/10/14 10:07:19;;;;;;;;;;;;;;;;;;5023082;28;19920;-60
2022/10/14 10:09:47;;;;;;;;;;;;;;;;;;5023905;28;19925;-60
2022/10/14 10:12:16;;;;;;;;;;;;;;;;;;5017008;28;19939;-60
2022/10/14 10:14:41;;;;;;;;;;;;;;;;;;5022858;28;21878;-61
2022/10/14 10:17:06;;;;;;;;;;;;;;;;;;5020902;28;19917;-60
2022/10/14 10:19:34;;;;;;;;;;;;;;;;;;5025405;28;19960;-60
2022/10/14 10:22:01;;;;;;;;;;;;;;;;;;5018738;28;19920;-60
2022/10/14 10:24:30;;;;;;;;;;;;;;;;;;5024583;28;20587;-60
2022/10/14 10:26:58;;;;;;;;;;;;;;;;;;5021567;28;20385;-60
2022/10/14 10:29:31;;;;;;;;;;;;;;;;;;5021519;28;21501;-60
2022/10/14 10:31:56;;;;;;;;;;;;;;;;;;5025964;28;19921;-60
2022/10/14 10:34:24;;;;;;;;;;;;;;;;;;5022176;28;19929;-61
2022/10/14 10:36:51;;;;;;;;;;;;;;;;;;5024299;28;20308;-59
2022/10/14 10:39:17;;;;;;;;;;;;;;;;;;5026362;28;20418;-61
2022/10/14 10:41:42;;;;;;;;;;;;;;;;;;5025220;28;20143;-61
2022/10/14 10:44:08;;;;;;;;;;;;;;;;;;5026688;28;21980;-61
2022/10/14 10:46:34;;;;;;;;;;;;;;;;;;5029546;28;20314;-61
2022/10/14 10:49:00;;;;;;;;;;;;;;;;;;5023605;28;20746;-61
2022/10/14 10:51:26;;;;;;;;;;;;;;;;;;5025918;28;19918;-62
2022/10/14 10:53:54;;;;;;;;;;;;;;;;;;5024009;28;19952;-59
2022/10/14 10:56:19;;;;;;;;;;;;;;;;;;5021726;28;19959;-59
2022/10/14 10:58:44;;;;;;;;;;;;;;;;;;5022483;28;20066;-59
2022/10/14 11:01:10;;;;;;;;;;;;;;;;;;5026235;28;19920;-59
2022/10/14 11:03:35;;;;;;;;;;;;;;;;;;5024344;28;19952;-59
2022/10/14 11:06:01;;;;;;;;;;;;;;;;;;5026735;28;19968;-61
2022/10/14 11:13:57;;;;;;;;;;;;;;;;;;5025481;28;20344;-60
2022/10/14 11:16:22;;;;;;;;;;;;;;;;;;5008637;28;19947;-60
2022/10/14 11:18:50;;;;;;;;;;;;;;;;;;5025459;28;19967;-60
2022/10/14 11:21:15;;;;;;;;;;;;;;;;;;5025161;28;19927;-60
2022/10/14 11:23:43;;;;;;;;;;;;;;;;;;5025552;28;19921;-60
2022/10/14 11:26:09;;;;;;;;;;;;;;;;;;5023655;28;19923;-60
2022/10/14 11:28:36;;;;;;;;;;;;;;;;;;5025017;28;19925;-59
2022/10/14 11:31:05;;;;;;;;;;;;;;;;;;5025883;28;19931;-58
2022/10/14 11:33:35;;;;;;;;;;;;;;;;;;5024612;28;19929;-59
2022/10/14 11:36:03;;;;;;;;;;;;;;;;;;5026617;28;20418;-59
2022/10/14 11:38:33;;;;;;;;;;;;;;;;;;5023866;28;19943;-59
2022/10/14 11:41:01;;;;;;;;;;;;;;;;;;5024751;28;19921;-59
2022/10/14 11:43:27;;;;;;;;;;;;;;;;;;5024650;28;19924;-60
2022/10/14 11:45:55;;;;;;;;;;;;;;;;;;5025227;28;19916;-59
2022/10/14 11:48:20;;;;;;;;;;;;;;;;;;5023735;28;19935;-59
2022/10/14 11:50:46;;;;;;;;;;;;;;;;;;5025710;28;19924;-59
2022/10/14 11:53:12;;;;;;;;;;;;;;;;;;5023036;28;19921;-58
2022/10/14 11:55:39;;;;;;;;;;;;;;;;;;5025307;28;19917;-58
2022/10/14 11:58:08;;;;;;;;;;;;;;;;;;5018609;28;19920;-58
2022/10/14 12:00:36;;;;;;;;;;;;;;;;;;5024259;28;19921;-58
2022/10/14 12:03:02;;;;;;;;;;;;;;;;;;5025487;28;19975;-58
2022/10/14 12:05:33;;;;;;;;;;;;;;;;;;5022015;28;19947;-58
2022/10/14 12:08:00;;;;;;;;;;;;;;;;;;5025469;28;20428;-58
2022/10/14 12:10:26;;;;;;;;;;;;;;;;;;5023420;28;19925;-59
2022/10/14 12:12:51;;;;;;;;;;;;;;;;;;5022650;28;19956;-59
2022/10/14 12:15:19;;;;;;;;;;;;;;;;;;5024500;28;20019;-60
2022/10/14 12:17:44;;;;;;;;;;;;;;;;;;5023574;28;21836;-61
2022/10/14 12:20:10;;;;;;;;;;;;;;;;;;5023608;28;19971;-60
2022/10/14 12:22:38;;;;;;;;;;;;;;;;;;5023284;28;19929;-59
2022/10/14 12:25:04;;;;;;;;;;;;;;;;;;5023920;28;19920;-59
2022/10/14 12:27:31;;;;;;;;;;;;;;;;;;5022801;28;19916;-59
2022/10/14 12:30:02;;;;;;;;;;;;;;;;;;5023187;28;19940;-59
2022/10/14 12:32:30;;;;;;;;;;;;;;;;;;5021917;28;19971;-59
2022/10/14 12:34:57;;;;;;;;;;;;;;;;;;5022311;28;20031;-59
2022/10/14 12:37:23;;;;;;;;;;;;;;;;;;5022471;28;19949;-60
2022/10/14 12:39:48;;;;;;;;;;;;;;;;;;5025008;28;20962;-59
2022/10/14 12:42:13;;;;;;;;;;;;;;;;;;5014504;28;19917;-59
2022/10/14 12:44:41;;;;;;;;;;;;;;;;;;5021850;28;20007;-59
2022/10/14 12:47:06;;;;;;;;;;;;;;;;;;5010174;28;19924;-59
2022/10/14 12:49:32;;;;;;;;;;;;;;;;;;5021869;28;19925;-59
2022/10/14 12:51:57;;;;;;;;;;;;;;;;;;5021981;28;19943;-59
2022/10/14 12:54:25;;;;;;;;;;;;;;;;;;5024014;28;19933;-59
2022/10/14 12:56:51;;;;;;;;;;;;;;;;;;5021409;28;19928;-59
2022/10/14 12:59:17;;;;;;;;;;;;;;;;;;5019352;28;19921;-59
2022/10/14 13:01:43;;;;;;;;;;;;;;;;;;5024154;28;19929;-59
2022/10/14 13:04:08;;;;;;;;;;;;;;;;;;5022246;28;19936;-59
2022/10/14 13:06:36;;;;;;;;;;;;;;;;;;5021684;28;20368;-58
2022/10/14 13:09:04;;;;;;;;;;;;;;;;;;5023127;28;19990;-58
2022/10/14 13:11:32;;;;;;;;;;;;;;;;;;5019788;28;19924;-58
2022/10/14 13:14:02;;;;;;;;;;;;;;;;;;5006204;28;19920;-58
2022/10/14 13:16:28;;;;;;;;;;;;;;;;;;5023498;28;19921;-59
2022/10/14 13:19:01;;;;;;;;;;;;;;;;;;5021885;28;19924;-57
2022/10/14 13:21:29;;;;;;;;;;;;;;;;;;5023186;28;20315;-59
2022/10/14 13:23:55;;;;;;;;;;;;;;;;;;5020766;28;19921;-59
2022/10/14 13:26:25;;;;;;;;;;;;;;;;;;5019461;28;19921;-59
2022/10/14 13:28:51;;;;;;;;;;;;;;;;;;5019866;28;19925;-59
2022/10/14 13:31:19;;;;;;;;;;;;;;;;;;5027005;28;19928;-59
2022/10/14 13:33:44;;;;;;;;;;;;;;;;;;5017862;28;19991;-59
2022/10/14 13:36:09;;;;;;;;;;;;;;;;;;5020274;28;19928;-58
2022/10/14 13:38:35;;;;;;;;;;;;;;;;;;5018229;28;19927;-59
2022/10/14 13:41:00;;;;;;;;;;;;;;;;;;5017517;28;20649;-60
2022/10/14 13:43:26;;;;;;;;;;;;;;;;;;5018418;28;19948;-60
2022/10/14 13:45:52;;;;;;;;;;;;;;;;;;5017730;28;20369;-60
2022/10/14 13:48:17;;;;;;;;;;;;;;;;;;5020210;28;19931;-60
2022/10/14 13:50:42;;;;;;;;;;;;;;;;;;5017392;28;20955;-59
2022/10/14 13:53:08;;;;;;;;;;;;;;;;;;5018693;28;19921;-59
2022/10/14 13:55:36;;;;;;;;;;;;;;;;;;5015085;28;19945;-59
2022/10/14 13:58:06;;;;;;;;;;;;;;;;;;5019668;28;19921;-59
2022/10/14 14:00:31;;;;;;;;;;;;;;;;;;5019338;28;19956;-59
2022/10/14 14:02:56;;;;;;;;;;;;;;;;;;5021074;28;21818;-58
2022/10/14 14:05:26;;;;;;;;;;;;;;;;;;5023944;28;19920;-59
2022/10/14 14:07:55;;;;;;;;;;;;;;;;;;5023214;28;19947;-58
2022/10/14 14:10:20;;;;;;;;;;;;;;;;;;5026308;28;20573;-58
2022/10/14 14:12:45;;;;;;;;;;;;;;;;;;5022188;28;19924;-58
2022/10/14 14:15:10;;;;;;;;;;;;;;;;;;5026047;28;19962;-58
2022/10/14 14:17:38;;;;;;;;;;;;;;;;;;5025335;28;19928;-58
2022/10/14 14:20:06;;;;;;;;;;;;;;;;;;5027041;28;20039;-57
2022/10/14 14:22:36;;;;;;;;;;;;;;;;;;5024942;28;20663;-58
2022/10/14 14:25:03;;;;;;;;;;;;;;;;;;5018161;28;20783;-58
2022/10/14 14:27:29;;;;;;;;;;;;;;;;;;5017585;28;20319;-58
2022/10/14 14:29:54;;;;;;;;;;;;;;;;;;5023498;28;19921;-58
2022/10/14 14:32:19;;;;;;;;;;;;;;;;;;5025808;28;20032;-58
2022/10/14 14:34:45;;;;;;;;;;;;;;;;;;5031852;28;19935;-58
2022/10/14 14:37:11;;;;;;;;;;;;;;;;;;5021579;28;20067;-58
2022/10/14 14:39:36;;;;;;;;;;;;;;;;;;5021641;28;19952;-58
2022/10/14 14:42:01;;;;;;;;;;;;;;;;;;5009311;28;19960;-58
2022/10/14 14:44:27;;;;;;;;;;;;;;;;;;5024560;28;19925;-58
2022/10/14 14:46:52;;;;;;;;;;;;;;;;;;5020711;28;19932;-58
2022/10/14 14:49:18;;;;;;;;;;;;;;;;;;5022012;28;19928;-59
2022/10/14 14:51:46;;;;;;;;;;;;;;;;;;5023009;28;21707;-58
2022/10/14 14:54:12;;;;;;;;;;;;;;;;;;5021276;28;19923;-58
2022/10/14 14:56:39;;;;;;;;;;;;;;;;;;5018863;28;20433;-58
2022/10/14 14:59:07;;;;;;;;;;;;;;;;;;5017850;28;19921;-58
2022/10/14 15:01:32;;;;;;;;;;;;;;;;;;5021736;28;20316;-57
2022/10/14 15:03:58;;;;;;;;;;;;;;;;;;5020831;28;20095;-56
2022/10/14 15:06:24;;;;;;;;;;;;;;;;;;5020725;28;19928;-57
2022/10/14 15:08:49;;;;;;;;;;;;;;;;;;5018772;28;19924;-57
2022/10/14 15:11:15;;;;;;;;;;;;;;;;;;5019551;28;20662;-58
2022/10/14 15:13:41;;;;;;;;;;;;;;;;;;5021352;28;20296;-58
2022/10/14 15:16:11;;;;;;;;;;;;;;;;;;5015389;28;19920;-57
2022/10/14 15:18:42;;;;;;;;;;;;;;;;;;5025114;28;20006;-58
2022/10/14 15:21:07;;;;;;;;;;;;;;;;;;5023226;28;19921;-57
2022/10/14 15:23:35;;;;;;;;;;;;;;;;;;5006824;28;19921;-58
2022/10/14 15:26:00;;;;;;;;;;;;;;;;;;5022439;28;20372;-57
2022/10/14 15:28:26;;;;;;;;;;;;;;;;;;5024544;28;19967;-58
2022/10/14 15:30:52;;;;;;;;;;;;;;;;;;5023373;28;20043;-57
2022/10/14 15:33:17;;;;;;;;;;;;;;;;;;5027589;28;19929;-57
2022/10/14 15:35:45;;;;;;;;;;;;;;;;;;5023236;28;20475;-58
2022/10/14 15:38:11;;;;;;;;;;;;;;;;;;5019249;28;19917;-58
2022/10/14 15:40:36;;;;;;;;;;;;;;;;;;5016092;28;19921;-57
2022/10/14 15:43:01;;;;;;;;;;;;;;;;;;5019987;28;19928;-57
2022/10/14 15:45:27;;;;;;;;;;;;;;;;;;5018526;28;20459;-57
2022/10/14 15:47:52;;;;;;;;;;;;;;;;;;5014474;28;19929;-58
2022/10/14 15:50:17;;;;;;;;;;;;;;;;;;5021863;28;19979;-57
2022/10/14 15:52:45;;;;;;;;;;;;;;;;;;5021253;28;19921;-58
2022/10/14 15:55:11;;;;;;;;;;;;;;;;;;5023351;28;19921;-57
2022/10/14 15:57:39;;;;;;;;;;;;;;;;;;5022794;28;20007;-59
2022/10/14 16:00:04;;;;;;;;;;;;;;;;;;5019755;28;20532;-58
2022/10/14 16:02:32;;;;;;;;;;;;;;;;;;5019720;28;20024;-57
2022/10/14 16:04:57;;;;;;;;;;;;;;;;;;5021234;28;19927;-57
2022/10/14 16:07:23;;;;;;;;;;;;;;;;;;5016924;28;20559;-58
2022/10/14 16:09:48;;;;;;;;;;;;;;;;;;5020345;28;19924;-58
2022/10/14 16:12:16;;;;;;;;;;;;;;;;;;5021572;28;20371;-58
2022/10/14 16:14:41;;;;;;;;;;;;;;;;;;5020886;28;20327;-58
2022/10/14 16:17:07;;;;;;;;;;;;;;;;;;5016856;28;19921;-58
2022/10/14 16:19:35;;;;;;;;;;;;;;;;;;5020706;28;19921;-58
2022/10/14 16:22:00;;;;;;;;;;;;;;;;;;5019437;28;19971;-58
2022/10/14 16:24:26;;;;;;;;;;;;;;;;;;5022039;28;19921;-58
2022/10/14 16:26:51;;;;;;;;;;;;;;;;;;5021824;28;21795;-58
2022/10/14 16:29:17;;;;;;;;;;;;;;;;;;5021756;28;19924;-59
2022/10/14 16:31:42;;;;;;;;;;;;;;;;;;5021774;28;20334;-59
2022/10/14 16:34:07;;;;;;;;;;;;;;;;;;5020129;28;20414;-59
2022/10/14 16:36:33;;;;;;;;;;;;;;;;;;5022816;28;19928;-59
2022/10/14 16:39:00;;;;;;;;;;;;;;;;;;5023806;28;20007;-58
2022/10/14 16:41:29;;;;;;;;;;;;;;;;;;5013141;28;22541;-58
2022/10/14 16:43:57;;;;;;;;;;;;;;;;;;5018073;28;20386;-58
2022/10/14 16:47:14;;;;;;;;;;;;;;;;;;5020209;28;20015;-58